createdAt,value
2022-09-15T00:01:04.221Z,91.77
2022-09-15T00:04:08.779Z,91.93
2022-09-15T00:07:11.568Z,92.06
2022-09-15T00:10:14.966Z,92.14
2022-09-15T00:13:18.315Z,92.27
2022-09-15T00:16:24.466Z,92.46
2022-09-15T00:19:27.281Z,92.82
2022-09-15T00:22:30.413Z,93.01
2022-09-15T00:25:33.464Z,93.18
2022-09-15T00:28:37.591Z,93.30
2022-09-15T00:31:40.409Z,93.70
2022-09-15T00:34:43.517Z,94.57
2022-09-15T00:37:46.567Z,94.41
2022-09-15T00:40:56.267Z,94.85
2022-09-15T00:44:26.695Z,95.78
2022-09-15T00:47:39.702Z,96.90
2022-09-15T00:50:46.045Z,98.80
2022-09-15T00:53:51.032Z,98.78
2022-09-15T00:56:57.154Z,99.56
2022-09-15T01:00:04.221Z,100.00
2022-09-15T01:03:07.754Z,100.00
2022-09-15T01:06:16.546Z,100.00
2022-09-15T01:09:27.772Z,100.00
2022-09-15T01:12:31.469Z,100.00
2022-09-15T01:15:55.978Z,100.00
2022-09-15T01:19:27.358Z,100.00
2022-09-15T01:22:56.875Z,100.00
2022-09-15T01:26:00.147Z,100.00
2022-09-15T01:29:31.363Z,100.00
2022-09-15T01:33:05.933Z,100.00
2022-09-15T01:36:18.361Z,100.00
2022-09-15T01:39:25.746Z,100.00
2022-09-15T01:42:31.228Z,100.00
2022-09-15T01:45:39.101Z,100.00
2022-09-15T01:48:43.435Z,100.00
2022-09-15T01:51:52.136Z,100.00
2022-09-15T01:55:02.253Z,100.00
2022-09-15T01:58:05.799Z,100.00
2022-09-15T02:01:08.577Z,100.00
2022-09-15T02:04:23.911Z,100.00
2022-09-15T02:07:32.003Z,100.00
2022-09-15T02:10:44.476Z,100.00
2022-09-15T02:14:03.849Z,100.00
2022-09-15T02:17:14.985Z,100.00
2022-09-15T02:20:42.419Z,100.00
2022-09-15T02:23:51.303Z,100.00
2022-09-15T02:26:55.432Z,100.00
2022-09-15T02:30:06.015Z,100.00
2022-09-15T02:33:16.507Z,100.00
2022-09-15T02:36:21.575Z,100.00
2022-09-15T02:39:31.552Z,100.00
2022-09-15T02:42:35.266Z,100.00
2022-09-15T02:45:38.287Z,100.00
2022-09-15T02:48:41.717Z,100.00
2022-09-15T02:51:44.569Z,100.00
2022-09-15T02:54:48.175Z,100.00
2022-09-15T02:57:50.950Z,100.00
2022-09-15T03:00:56.015Z,100.00
2022-09-15T03:03:59.266Z,100.00
2022-09-15T03:07:02.419Z,100.00
2022-09-15T03:10:06.773Z,100.00
2022-09-15T03:13:09.785Z,100.00
2022-09-15T03:16:14.873Z,100.00
2022-09-15T03:19:18.097Z,100.00
2022-09-15T03:22:21.556Z,100.00
2022-09-15T03:25:27.063Z,100.00
2022-09-15T03:28:30.376Z,100.00
2022-09-15T03:31:33.482Z,100.00
2022-09-15T03:34:36.516Z,100.00
2022-09-15T03:37:39.609Z,100.00
2022-09-15T03:40:43.868Z,100.00
2022-09-15T03:43:46.932Z,100.00
2022-09-15T03:46:50.277Z,100.00
2022-09-15T03:49:53.406Z,100.00
2022-09-15T03:52:58.807Z,100.00
2022-09-15T03:56:18.207Z,100.00
2022-09-15T03:59:21.696Z,100.00
2022-09-15T04:02:25.187Z,100.00
2022-09-15T04:05:29.024Z,100.00
2022-09-15T04:08:32.185Z,100.00
2022-09-15T04:11:35.444Z,100.00
2022-09-15T04:14:38.497Z,100.00
2022-09-15T04:17:41.715Z,100.00
2022-09-15T04:20:44.541Z,100.00
2022-09-15T04:23:48.715Z,100.00
2022-09-15T04:26:51.821Z,100.00
2022-09-15T04:29:54.833Z,100.00
2022-09-15T04:32:57.633Z,100.00
2022-09-15T04:36:11.671Z,100.00
2022-09-15T04:39:14.484Z,100.00
2022-09-15T04:42:17.664Z,100.00
2022-09-15T04:45:21.626Z,100.00
2022-09-15T04:48:25.586Z,100.00
2022-09-15T04:51:28.747Z,100.00
2022-09-15T04:54:34.746Z,100.00
2022-09-15T04:57:37.717Z,100.00
2022-09-15T05:00:46.045Z,100.00
2022-09-15T05:03:49.737Z,100.00
2022-09-15T05:06:52.884Z,100.00
2022-09-15T05:09:55.693Z,100.00
2022-09-15T05:12:58.740Z,100.00
2022-09-15T05:16:12.419Z,100.00
2022-09-15T05:19:15.624Z,100.00
2022-09-15T05:22:18.450Z,100.00
2022-09-15T05:25:21.526Z,100.00
2022-09-15T05:28:24.950Z,100.00
2022-09-15T05:31:33.898Z,100.00
2022-09-15T05:34:36.922Z,100.00
2022-09-15T05:37:39.955Z,100.00
2022-09-15T05:40:42.902Z,100.00
2022-09-15T05:43:47.489Z,100.00
2022-09-15T05:46:50.269Z,100.00
2022-09-15T05:49:53.949Z,100.00
2022-09-15T05:52:57.119Z,100.00
2022-09-15T05:56:03.253Z,100.00
2022-09-15T05:59:06.151Z,100.00
2022-09-15T06:02:10.665Z,100.00
2022-09-15T06:05:14.167Z,100.00
2022-09-15T06:08:18.261Z,100.00
2022-09-15T06:11:24.443Z,100.00
2022-09-15T06:14:27.187Z,100.00
2022-09-15T06:17:32.951Z,100.00
2022-09-15T06:20:36.446Z,100.00
2022-09-15T06:23:40.692Z,100.00
2022-09-15T06:26:43.983Z,100.00
2022-09-15T06:29:47.334Z,100.00
2022-09-15T06:32:50.320Z,100.00
2022-09-15T06:35:53.918Z,100.00
2022-09-15T06:38:57.148Z,100.00
2022-09-15T06:42:03.673Z,100.00
2022-09-15T06:45:10.777Z,100.00
2022-09-15T06:48:24.552Z,100.00
2022-09-15T06:51:31.444Z,100.00
2022-09-15T06:54:34.803Z,100.00
2022-09-15T06:57:37.655Z,100.00
2022-09-15T07:00:41.274Z,100.00
2022-09-15T07:03:44.312Z,100.00
2022-09-15T07:06:48.270Z,100.00
2022-09-15T07:09:51.000Z,100.00
2022-09-15T07:12:54.276Z,100.00
2022-09-15T07:16:00.045Z,100.00
2022-09-15T07:19:05.949Z,100.00
2022-09-15T07:22:08.837Z,100.00
2022-09-15T07:25:12.079Z,100.00
2022-09-15T07:28:15.870Z,100.00
2022-09-15T07:31:22.018Z,100.00
2022-09-15T07:34:25.569Z,100.00
2022-09-15T07:37:28.697Z,100.00
2022-09-15T07:40:32.236Z,100.00
2022-09-15T07:43:35.572Z,100.00
2022-09-15T07:46:38.301Z,100.00
2022-09-15T07:49:42.216Z,99.90
2022-09-15T07:52:44.979Z,100.00
2022-09-15T07:55:54.529Z,99.98
2022-09-15T07:58:57.422Z,100.00
2022-09-15T08:02:00.643Z,100.00
2022-09-15T08:05:03.961Z,100.00
2022-09-15T08:08:07.181Z,100.00
2022-09-15T08:11:18.516Z,100.00
2022-09-15T08:14:22.057Z,98.33
2022-09-15T08:17:25.362Z,95.27
2022-09-15T08:20:28.895Z,90.47
2022-09-15T08:23:32.643Z,88.82
2022-09-15T08:26:38.447Z,88.39
2022-09-15T08:29:41.736Z,86.69
2022-09-15T08:32:44.893Z,87.65
2022-09-15T08:35:47.926Z,85.51
2022-09-15T08:38:51.162Z,87.05
2022-09-15T08:41:55.586Z,86.87
2022-09-15T08:45:09.302Z,86.83
2022-09-15T08:48:21.004Z,87.51
2022-09-15T08:51:32.465Z,88.09
2022-09-15T08:54:35.515Z,87.36
2022-09-15T08:57:38.986Z,90.38
2022-09-15T09:00:44.343Z,89.47
2022-09-15T09:04:05.787Z,90.66
2022-09-15T09:07:44.492Z,89.93
2022-09-15T09:10:59.106Z,86.92
2022-09-15T09:14:41.154Z,88.13
2022-09-15T09:18:12.050Z,85.19
2022-09-15T09:21:22.358Z,82.76
2022-09-15T09:24:29.453Z,80.74
2022-09-15T09:27:35.147Z,80.26
2022-09-15T09:30:39.179Z,78.44
2022-09-15T09:33:49.649Z,79.16
2022-09-15T09:36:57.665Z,78.14
2022-09-15T09:40:01.179Z,77.77
2022-09-15T09:43:04.125Z,75.82
2022-09-15T09:46:19.009Z,74.10
2022-09-15T09:49:24.138Z,74.55
2022-09-15T09:52:34.427Z,72.54
2022-09-15T09:55:37.455Z,71.53
2022-09-15T09:58:40.656Z,69.06
2022-09-15T10:02:12.157Z,68.70
2022-09-15T10:05:20.303Z,68.79
2022-09-15T10:08:23.325Z,70.45
2022-09-15T10:11:41.316Z,69.41
2022-09-15T10:14:52.643Z,69.16
2022-09-15T10:17:57.152Z,73.16
2022-09-15T10:21:04.987Z,73.51
2022-09-15T10:24:28.442Z,72.89
2022-09-15T10:27:36.363Z,72.02
2022-09-15T10:30:59.981Z,71.87
2022-09-15T10:34:32.276Z,71.77
2022-09-15T10:38:12.758Z,71.45
2022-09-15T10:41:29.112Z,70.27
2022-09-15T10:44:50.702Z,69.67
2022-09-15T10:48:46.201Z,69.92
2022-09-15T10:52:05.086Z,69.84
2022-09-15T10:55:48.514Z,70.64
2022-09-15T10:59:13.796Z,71.17
2022-09-15T11:02:25.601Z,72.32
2022-09-15T11:05:32.015Z,73.62
2022-09-15T11:09:00.932Z,73.00
2022-09-15T11:12:07.421Z,74.49
2022-09-15T11:15:28.136Z,75.46
2022-09-15T11:18:34.434Z,75.80
2022-09-15T11:21:43.200Z,76.74
2022-09-15T11:25:05.341Z,78.95
2022-09-15T11:28:20.309Z,77.12
2022-09-15T11:31:29.837Z,76.72
2022-09-15T11:34:40.289Z,76.79
2022-09-15T11:37:48.490Z,76.06
2022-09-15T11:41:01.925Z,78.46
2022-09-15T11:44:30.875Z,79.96
2022-09-15T11:47:42.662Z,79.34
2022-09-15T11:50:49.048Z,80.30
2022-09-15T11:53:56.180Z,83.72
2022-09-15T11:57:00.484Z,82.40
2022-09-15T12:00:12.925Z,82.30
2022-09-15T12:03:23.310Z,83.48
2022-09-15T12:06:32.363Z,86.98
2022-09-15T12:09:35.493Z,86.77
2022-09-15T12:12:41.619Z,88.95
2022-09-15T12:15:46.789Z,92.14
2022-09-15T12:18:53.732Z,92.83
2022-09-15T12:22:12.239Z,94.75
2022-09-15T12:25:20.171Z,94.96
2022-09-15T12:28:24.106Z,95.89
2022-09-15T12:31:38.657Z,92.60
2022-09-15T12:34:57.771Z,93.47
2022-09-15T12:38:01.153Z,94.12
2022-09-15T12:41:04.978Z,92.87
2022-09-15T12:44:23.543Z,94.68
2022-09-15T12:47:32.487Z,92.70
2022-09-15T12:50:42.742Z,92.63
2022-09-15T12:53:46.382Z,93.74
2022-09-15T12:56:54.542Z,93.44
2022-09-15T13:00:27.474Z,91.71
2022-09-15T13:07:15.174Z,92.82
2022-09-15T13:10:41.258Z,94.17
2022-09-15T13:13:50.437Z,93.72
2022-09-15T13:17:03.966Z,94.02
2022-09-15T13:20:18.004Z,92.51
2022-09-15T13:23:25.704Z,91.50
2022-09-15T13:26:31.844Z,91.17
2022-09-15T13:30:09.666Z,91.15
2022-09-15T13:33:25.231Z,90.26
2022-09-15T13:40:32.437Z,88.86
2022-09-15T13:43:40.036Z,88.11
2022-09-15T13:46:51.774Z,87.78
2022-09-15T13:50:06.559Z,87.90
2022-09-15T13:53:45.570Z,89.82
2022-09-15T13:56:49.222Z,97.68
2022-09-15T13:59:52.801Z,100.00
2022-09-15T14:03:02.144Z,100.00
2022-09-15T14:06:15.153Z,100.00
2022-09-15T14:09:25.859Z,100.00
2022-09-15T14:12:28.934Z,100.00
2022-09-15T14:15:31.775Z,100.00
2022-09-15T14:18:44.017Z,100.00
2022-09-15T14:21:53.787Z,100.00
2022-09-15T14:25:16.616Z,100.00
2022-09-15T14:28:28.311Z,100.00
2022-09-15T14:31:41.069Z,100.00
2022-09-15T14:34:45.040Z,100.00
2022-09-15T14:37:50.179Z,100.00
2022-09-15T14:40:56.863Z,100.00
2022-09-15T14:43:59.865Z,100.00
2022-09-15T14:47:20.446Z,100.00
2022-09-15T14:50:23.921Z,100.00
2022-09-15T14:53:27.971Z,100.00
2022-09-15T14:56:35.767Z,100.00
2022-09-15T14:59:49.478Z,100.00
2022-09-15T15:02:58.488Z,100.00
2022-09-15T15:09:39.727Z,100.00
2022-09-15T15:12:46.271Z,100.00
2022-09-15T15:15:49.402Z,100.00
2022-09-15T15:18:53.338Z,100.00
2022-09-15T15:22:12.319Z,100.00
2022-09-15T15:25:29.060Z,100.00
2022-09-15T15:28:35.990Z,100.00
2022-09-15T15:31:40.297Z,100.00
2022-09-15T15:35:02.657Z,100.00
2022-09-15T15:38:11.598Z,100.00
2022-09-15T15:41:24.386Z,100.00
2022-09-15T15:44:29.661Z,100.00
2022-09-15T15:47:36.072Z,100.00
2022-09-15T15:50:39.253Z,100.00
2022-09-15T15:53:42.705Z,100.00
2022-09-15T15:56:45.593Z,100.00
2022-09-15T15:59:48.552Z,100.00
2022-09-15T16:02:52.437Z,100.00
2022-09-15T16:05:59.678Z,100.00
2022-09-15T16:09:03.996Z,100.00
2022-09-15T16:12:08.991Z,100.00
2022-09-15T16:15:15.027Z,100.00
2022-09-15T16:18:18.092Z,100.00
2022-09-15T16:21:27.423Z,100.00
2022-09-15T16:24:31.185Z,100.00
2022-09-15T16:27:33.885Z,100.00
2022-09-15T16:30:37.260Z,100.00
2022-09-15T16:33:44.322Z,100.00
2022-09-15T16:36:47.311Z,100.00
2022-09-15T16:39:52.205Z,100.00
2022-09-15T16:42:55.288Z,100.00
2022-09-15T16:45:57.990Z,100.00
2022-09-15T16:49:00.836Z,100.00
2022-09-15T16:52:04.113Z,100.00
2022-09-15T16:55:21.318Z,100.00
2022-09-15T16:58:24.088Z,100.00
2022-09-15T17:01:27.571Z,100.00
2022-09-15T17:04:30.243Z,100.00
2022-09-15T17:07:33.199Z,100.00
2022-09-15T17:10:36.832Z,100.00
2022-09-15T17:13:39.857Z,100.00
2022-09-15T17:16:42.454Z,100.00
2022-09-15T17:19:45.413Z,100.00
2022-09-15T17:22:48.699Z,100.00
2022-09-15T17:25:59.096Z,100.00
2022-09-15T17:29:01.871Z,100.00
2022-09-15T17:32:04.838Z,100.00
2022-09-15T17:35:25.066Z,100.00
2022-09-15T17:38:28.249Z,100.00
2022-09-15T17:41:32.404Z,100.00
2022-09-15T17:44:37.605Z,100.00
2022-09-15T17:47:40.563Z,100.00
2022-09-15T17:50:45.351Z,100.00
2022-09-15T17:53:48.191Z,100.00
2022-09-15T17:56:51.201Z,100.00
2022-09-15T17:59:53.841Z,100.00
2022-09-15T18:02:59.500Z,100.00
2022-09-15T18:06:07.897Z,100.00
2022-09-15T18:09:11.737Z,100.00
2022-09-15T18:12:14.675Z,100.00
2022-09-15T18:15:21.397Z,100.00
2022-09-15T18:18:27.592Z,100.00
2022-09-15T18:21:30.363Z,100.00
2022-09-15T18:24:33.351Z,100.00
2022-09-15T18:27:35.996Z,100.00
2022-09-15T18:30:41.836Z,100.00
2022-09-15T18:33:44.490Z,100.00
2022-09-15T18:36:47.368Z,100.00
2022-09-15T18:39:50.107Z,100.00
2022-09-15T18:42:54.197Z,100.00
2022-09-15T18:46:01.280Z,100.00
2022-09-15T18:49:05.057Z,100.00
2022-09-15T18:52:07.872Z,100.00
2022-09-15T18:55:15.239Z,100.00
2022-09-15T18:58:19.310Z,100.00
2022-09-15T19:01:22.588Z,100.00
2022-09-15T19:04:31.069Z,100.00
2022-09-15T19:07:35.290Z,100.00
2022-09-15T19:10:42.254Z,100.00
2022-09-15T19:13:45.297Z,100.00
2022-09-15T19:16:57.671Z,100.00
2022-09-15T19:20:01.937Z,100.00
2022-09-15T19:23:04.652Z,100.00
2022-09-15T19:26:13.051Z,100.00
2022-09-15T19:29:15.816Z,100.00
2022-09-15T19:32:19.243Z,100.00
2022-09-15T19:35:21.930Z,100.00
2022-09-15T19:38:25.242Z,100.00
2022-09-15T19:41:27.926Z,100.00
2022-09-15T19:44:30.971Z,100.00
2022-09-15T19:47:34.187Z,100.00
2022-09-15T19:50:38.542Z,100.00
2022-09-15T19:53:42.399Z,100.00
2022-09-15T19:56:45.388Z,100.00
2022-09-15T19:59:48.228Z,100.00
2022-09-15T20:02:51.228Z,100.00
2022-09-15T20:05:57.150Z,100.00
2022-09-15T20:09:00.122Z,100.00
2022-09-15T20:12:03.513Z,100.00
2022-09-15T20:15:09.491Z,100.00
2022-09-15T20:18:13.508Z,100.00
2022-09-15T20:21:27.116Z,100.00
2022-09-15T20:24:35.894Z,100.00
2022-09-15T20:27:38.510Z,100.00
2022-09-15T20:30:42.957Z,100.00
2022-09-15T20:33:47.505Z,100.00
2022-09-15T20:36:50.985Z,100.00
2022-09-15T20:39:54.044Z,100.00
2022-09-15T20:42:57.039Z,100.00
2022-09-15T20:46:05.084Z,100.00
2022-09-15T20:49:09.847Z,100.00
2022-09-15T20:52:12.505Z,100.00
2022-09-15T20:55:15.462Z,100.00
2022-09-15T20:58:18.266Z,100.00
2022-09-15T21:01:34.753Z,100.00
2022-09-15T21:04:37.494Z,100.00
2022-09-15T21:07:40.504Z,100.00
2022-09-15T21:10:44.938Z,100.00
2022-09-15T21:13:48.195Z,100.00
2022-09-15T21:16:50.930Z,100.00
2022-09-15T21:19:53.975Z,100.00
2022-09-15T21:22:57.746Z,100.00
2022-09-15T21:26:05.695Z,100.00
2022-09-15T21:29:08.695Z,100.00
2022-09-15T21:32:11.623Z,100.00
2022-09-15T21:35:14.790Z,100.00
2022-09-15T21:38:17.765Z,100.00
2022-09-15T21:41:22.840Z,100.00
2022-09-15T21:44:25.953Z,100.00
2022-09-15T21:47:28.587Z,100.00
2022-09-15T21:50:31.750Z,100.00
2022-09-15T21:53:37.869Z,100.00
2022-09-15T21:56:41.464Z,100.00
2022-09-15T21:59:44.134Z,100.00
2022-09-15T22:02:51.163Z,100.00
2022-09-15T22:05:54.131Z,100.00
2022-09-15T22:08:57.186Z,100.00
2022-09-15T22:12:00.138Z,100.00
2022-09-15T22:15:02.916Z,100.00
2022-09-15T22:18:06.834Z,100.00
2022-09-15T22:21:11.541Z,100.00
2022-09-15T22:24:14.433Z,100.00
2022-09-15T22:27:17.102Z,100.00
2022-09-15T22:30:20.508Z,100.00
2022-09-15T22:33:23.201Z,100.00
2022-09-15T22:36:29.987Z,100.00
2022-09-15T22:39:57.287Z,100.00
2022-09-15T22:42:55.835Z,100.00
2022-09-15T22:45:58.523Z,100.00
2022-09-15T22:49:01.684Z,100.00
2022-09-15T22:52:04.618Z,100.00
2022-09-15T22:55:07.940Z,100.00
2022-09-15T22:58:10.656Z,100.00
2022-09-15T23:01:36.093Z,100.00
2022-09-15T23:04:38.949Z,100.00
2022-09-15T23:07:41.802Z,100.00
2022-09-15T23:10:44.760Z,100.00
2022-09-15T23:13:47.902Z,100.00
2022-09-15T23:16:50.449Z,100.00
2022-09-15T23:19:53.523Z,100.00
2022-09-15T23:22:56.181Z,100.00
2022-09-15T23:25:59.295Z,100.00
2022-09-15T23:29:01.927Z,100.00
2022-09-15T23:32:05.429Z,100.00
2022-09-15T23:35:08.636Z,100.00
2022-09-15T23:38:11.803Z,100.00
2022-09-15T23:41:15.659Z,100.00
2022-09-15T23:44:18.765Z,100.00
2022-09-15T23:47:21.515Z,100.00
2022-09-15T23:50:26.450Z,100.00
2022-09-15T23:53:29.070Z,100.00
2022-09-15T23:56:32.513Z,100.00
2022-09-15T23:59:35.117Z,100.00
